Time;durP1;ratioP1;P1;durP2;ratioP2;P2;SDS_P1;SDS_P2;PMS_P1;PMS_P2;Temp;Humidity;BMP_temperature;BMP_pressure;BME280_temperature;BME280_humidity;BME280_pressure;Samples;Min_cycle;Max_cycle;Signal;HPM_P1;HPM_P2
2023/09/23 00:01:31;;;;;;;1.10;1.00;;;;;;;16.83;59.89;100286.06;5037380;27;97132;-54
2023/09/23 00:03:57;;;;;;;1.30;1.10;;;;;;;16.84;59.83;100291.09;5035146;27;96775;-54
2023/09/23 00:06:23;;;;;;;4.30;1.10;;;;;;;16.86;59.88;100287.78;5034932;27;97332;-54
2023/09/23 00:08:48;;;;;;;1.40;1.00;;;;;;;16.87;59.94;100289.25;5032014;27;96954;-54
2023/09/23 00:11:14;;;;;;;1.20;1.07;;;;;;;16.88;59.94;100297.06;5034548;27;97104;-54
2023/09/23 00:13:39;;;;;;;1.10;1.00;;;;;;;16.91;60.08;100297.97;5036092;27;96910;-54
2023/09/23 00:16:11;;;;;;;1.90;1.00;;;;;;;16.90;60.34;100300.03;5037229;27;97217;-53
2023/09/23 00:18:38;;;;;;;3.70;1.23;;;;;;;16.91;60.07;100295.19;5036117;27;97503;-54
2023/09/23 00:21:05;;;;;;;2.03;1.30;;;;;;;16.92;59.99;100305.78;5035994;27;97233;-54
2023/09/23 00:23:32;;;;;;;2.80;1.10;;;;;;;16.95;60.18;100303.97;5037496;27;97102;-54
2023/09/23 00:25:58;;;;;;;1.50;0.90;;;;;;;16.96;60.29;100302.66;5034992;27;97188;-54
2023/09/23 00:28:30;;;;;;;0.80;0.80;;;;;;;16.96;60.29;100311.00;5034193;27;97468;-54
2023/09/23 00:31:10;;;;;;;1.80;0.97;;;;;;;16.98;60.76;100309.16;5035227;27;97030;-53
2023/09/23 00:33:38;;;;;;;1.17;0.90;;;;;;;16.97;60.36;100307.66;5033752;27;96875;-53
2023/09/23 00:36:05;;;;;;;1.30;1.00;;;;;;;17.03;60.51;100315.88;5033569;27;96883;-54
2023/09/23 00:38:32;;;;;;;0.93;0.87;;;;;;;17.08;60.38;100315.00;5033166;27;96691;-54
2023/09/23 00:40:57;;;;;;;0.70;0.70;;;;;;;17.12;60.26;100316.09;5034165;27;97733;-54
2023/09/23 00:43:23;;;;;;;0.80;0.60;;;;;;;17.15;60.30;100317.81;5034805;27;96894;-54
2023/09/23 00:45:51;;;;;;;1.37;0.90;;;;;;;17.20;60.20;100324.50;5034208;27;97371;-53
2023/09/23 00:48:20;;;;;;;0.70;0.63;;;;;;;17.24;60.14;100322.13;5031377;27;97210;-53
2023/09/23 00:50:46;;;;;;;0.83;0.80;;;;;;;17.28;60.08;100324.56;5034755;27;97722;-53
2023/09/23 00:53:12;;;;;;;0.70;0.70;;;;;;;17.30;60.04;100322.72;5031397;27;96989;-54
2023/09/23 00:55:43;;;;;;;2.00;0.80;;;;;;;17.33;59.99;100332.00;5034617;27;96947;-54
2023/09/23 00:58:14;;;;;;;1.10;0.60;;;;;;;17.39;60.10;100321.47;5032548;27;97016;-54
2023/09/23 01:00:43;;;;;;;0.97;0.53;;;;;;;17.38;60.15;100323.53;5034548;27;97141;-54
2023/09/23 01:03:11;;;;;;;0.77;0.60;;;;;;;17.39;60.00;100327.03;5034977;27;96797;-54
2023/09/23 01:05:39;;;;;;;0.83;0.80;;;;;;;17.38;60.14;100331.88;5037256;27;97018;-54
2023/09/23 01:08:05;;;;;;;0.90;0.70;;;;;;;17.37;60.16;100327.59;5033233;27;97219;-54
2023/09/23 01:10:31;;;;;;;0.90;0.77;;;;;;;17.35;60.15;100337.75;5033659;27;97117;-53
2023/09/23 01:12:57;;;;;;;1.13;0.60;;;;;;;17.34;60.18;100336.28;5033600;27;97165;-54
2023/09/23 01:15:25;;;;;;;2.77;1.00;;;;;;;17.32;60.34;100334.03;5034090;27;97148;-54
2023/09/23 01:17:53;;;;;;;2.40;0.80;;;;;;;17.32;60.15;100353.50;5033441;27;97134;-54
2023/09/23 01:20:20;;;;;;;1.20;0.77;;;;;;;17.32;60.20;100342.38;5034083;27;97517;-54
2023/09/23 01:22:47;;;;;;;0.73;0.70;;;;;;;17.29;60.28;100337.91;5031877;27;97129;-54
2023/09/23 01:25:13;;;;;;;1.27;0.60;;;;;;;17.29;60.31;100337.91;5033049;27;97131;-54
2023/09/23 01:27:39;;;;;;;0.70;0.60;;;;;;;17.28;60.17;100336.41;5035446;27;96891;-55
2023/09/23 01:30:05;;;;;;;0.70;0.53;;;;;;;17.24;60.21;100349.94;5031659;27;97732;-53
2023/09/23 01:32:47;;;;;;;0.70;0.60;;;;;;;17.25;60.15;100352.16;5033184;27;97463;-54
2023/09/23 01:35:16;;;;;;;1.20;0.67;;;;;;;17.26;60.22;100355.69;5036554;27;96767;-53
2023/09/23 01:37:44;;;;;;;2.87;0.93;;;;;;;17.28;60.35;100364.22;5034503;27;97071;-54
2023/09/23 01:40:16;;;;;;;0.93;0.60;;;;;;;17.29;60.28;100362.94;5032650;27;97123;-54
2023/09/23 01:42:41;;;;;;;1.37;0.57;;;;;;;17.31;60.08;100356.81;5032938;27;97877;-54
2023/09/23 01:45:08;;;;;;;1.70;0.60;;;;;;;17.31;60.19;100357.59;5032830;27;96951;-54
2023/09/23 01:47:35;;;;;;;1.00;0.77;;;;;;;17.31;60.09;100359.59;5035514;27;98958;-54
2023/09/23 01:50:01;;;;;;;1.33;0.63;;;;;;;17.33;60.11;100357.78;5035377;27;97178;-53
2023/09/23 01:52:29;;;;;;;0.80;0.70;;;;;;;17.33;60.09;100360.56;5037596;27;97153;-53
2023/09/23 01:54:55;;;;;;;0.80;0.70;;;;;;;17.33;59.95;100377.25;5036425;27;96998;-54
2023/09/23 01:57:20;;;;;;;0.80;0.70;;;;;;;17.37;60.08;100368.53;5034988;27;97355;-53
2023/09/23 01:59:46;;;;;;;1.10;0.80;;;;;;;17.37;60.03;100376.88;5037734;27;97214;-54
2023/09/23 02:02:11;;;;;;;1.70;0.60;;;;;;;17.39;60.00;100383.41;5035917;27;97325;-54
2023/09/23 02:04:39;;;;;;;0.70;0.70;;;;;;;17.38;59.96;100383.94;5039106;27;96966;-54
2023/09/23 02:07:04;;;;;;;1.00;0.70;;;;;;;17.41;60.14;100388.44;5035341;27;97099;-54
2023/09/23 02:09:36;;;;;;;0.67;0.63;;;;;;;17.43;59.91;100380.28;5038621;27;97242;-54
2023/09/23 02:12:02;;;;;;;2.37;0.67;;;;;;;17.46;59.94;100393.06;5034325;27;97197;-53
2023/09/23 02:14:29;;;;;;;0.80;0.80;;;;;;;17.48;60.05;100391.25;5038308;27;97180;-54
2023/09/23 02:16:55;;;;;;;0.97;0.80;;;;;;;17.48;60.06;100394.03;5039131;27;97208;-54
2023/09/23 02:19:21;;;;;;;1.93;0.73;;;;;;;17.50;59.87;100388.69;5037257;27;100115;-53
2023/09/23 02:21:47;;;;;;;1.30;0.93;;;;;;;17.51;59.92;100397.78;5036303;27;97218;-54
2023/09/23 02:24:12;;;;;;;1.53;0.80;;;;;;;17.50;59.86;100405.38;5037208;27;96859;-53
2023/09/23 02:26:38;;;;;;;1.30;1.03;;;;;;;17.50;59.98;100412.94;5036431;27;107468;-54
2023/09/23 02:29:04;;;;;;;1.17;1.00;;;;;;;17.49;59.96;100408.69;5036153;27;100299;-53
2023/09/23 02:31:31;;;;;;;1.23;0.97;;;;;;;17.50;60.00;100413.72;5036090;27;97400;-54
2023/09/23 02:33:57;;;;;;;2.60;1.03;;;;;;;17.50;59.97;100416.50;5039279;27;97145;-53
2023/09/23 02:36:22;;;;;;;1.30;1.20;;;;;;;17.51;60.10;100420.78;5036396;27;96615;-54
2023/09/23 02:38:48;;;;;;;1.50;1.40;;;;;;;17.52;60.07;100415.94;5034251;27;96989;-54
2023/09/23 02:41:13;;;;;;;1.33;1.23;;;;;;;17.53;59.97;100414.66;5035067;27;97088;-54
2023/09/23 02:43:39;;;;;;;1.30;1.20;;;;;;;17.51;60.18;100420.78;5036950;27;97221;-54
2023/09/23 02:46:06;;;;;;;1.37;1.27;;;;;;;17.53;60.06;100423.78;5037531;27;97439;-54
2023/09/23 02:48:33;;;;;;;1.47;1.37;;;;;;;17.53;60.08;100423.78;5037254;27;97115;-54
2023/09/23 02:51:00;;;;;;;2.17;1.60;;;;;;;17.55;60.00;100417.66;5038953;27;97076;-54
2023/09/23 02:53:26;;;;;;;2.03;1.50;;;;;;;17.54;59.94;100414.13;5038607;27;97252;-54
2023/09/23 02:56:08;;;;;;;2.20;1.27;;;;;;;17.52;60.24;100410.38;5032749;27;97986;-54
2023/09/23 02:58:34;;;;;;;2.03;1.60;;;;;;;17.53;59.97;100414.66;5037138;27;97868;-53
2023/09/23 03:01:04;;;;;;;1.70;1.60;;;;;;;17.52;60.10;100421.50;5038601;27;97168;-54
2023/09/23 03:03:30;;;;;;;2.60;1.57;;;;;;;17.51;60.10;100437.47;5037576;27;97546;-54
2023/09/23 03:05:57;;;;;;;1.13;1.13;;;;;;;17.52;60.08;100444.53;5034240;27;96975;-54
2023/09/23 03:08:25;;;;;;;2.90;1.87;;;;;;;17.50;60.07;100438.75;5036872;27;96870;-54
2023/09/23 03:10:52;;;;;;;2.30;1.37;;;;;;;17.50;60.24;100440.75;5037721;27;97161;-53
2023/09/23 03:13:21;;;;;;;1.60;1.50;;;;;;;17.50;60.04;100441.53;5033024;27;96596;-54
2023/09/23 03:15:53;;;;;;;2.70;1.93;;;;;;;17.50;60.09;100452.66;5036817;27;97822;-53
2023/09/23 03:18:33;;;;;;;1.50;1.40;;;;;;;17.48;60.24;100460.03;5037593;27;97773;-53
2023/09/23 03:21:10;;;;;;;2.07;1.97;;;;;;;17.47;60.27;100459.31;5039050;27;97527;-54
2023/09/23 03:23:39;;;;;;;2.57;1.77;;;;;;;17.48;60.17;100471.16;5038740;27;97224;-54
2023/09/23 03:26:09;;;;;;;1.90;1.80;;;;;;;17.49;60.12;100467.09;5036227;27;96816;-54
2023/09/23 03:28:39;;;;;;;4.83;2.30;;;;;;;17.47;60.22;100470.44;5034046;27;98994;-54
2023/09/23 03:31:08;;;;;;;1.70;1.60;;;;;;;17.47;60.22;100475.25;5042263;27;97212;-54
2023/09/23 03:33:34;;;;;;;1.90;1.67;;;;;;;17.46;60.25;100463.38;5036874;27;97509;-54
2023/09/23 03:36:00;;;;;;;1.83;1.73;;;;;;;17.45;60.33;100475.03;5037713;27;96943;-53
2023/09/23 03:38:25;;;;;;;2.00;1.90;;;;;;;17.45;60.38;100478.56;5036926;27;97210;-54
2023/09/23 03:40:52;;;;;;;3.63;2.10;;;;;;;17.46;60.18;100479.31;5037540;27;96738;-54
2023/09/23 03:43:18;;;;;;;2.10;2.00;;;;;;;17.47;60.32;100481.56;5039503;27;96987;-54
2023/09/23 03:45:43;;;;;;;2.03;1.90;;;;;;;17.47;60.22;100484.34;5031983;27;97361;-54
2023/09/23 03:48:10;;;;;;;3.20;2.27;;;;;;;17.44;60.45;100493.75;5034947;27;109283;-54
2023/09/23 03:50:36;;;;;;;2.60;2.50;;;;;;;17.45;60.32;100500.06;5036066;27;98981;-53
2023/09/23 03:53:01;;;;;;;2.23;2.13;;;;;;;17.44;60.37;100498.56;5032157;27;96791;-53
2023/09/23 03:55:28;;;;;;;4.20;2.73;;;;;;;17.41;60.36;100503.19;5037168;27;97207;-53
2023/09/23 03:57:54;;;;;;;2.73;2.63;;;;;;;17.40;60.58;100509.28;5033791;27;97400;-53
2023/09/23 04:00:19;;;;;;;2.70;2.50;;;;;;;17.38;60.45;100515.41;5032414;27;97231;-54
2023/09/23 04:02:49;;;;;;;3.10;2.70;;;;;;;17.39;60.50;100519.66;5034418;27;97365;-54
2023/09/23 04:05:15;;;;;;;2.80;2.60;;;;;;;17.38;60.47;100523.00;5034356;27;97141;-53
2023/09/23 04:07:49;;;;;;;3.40;3.20;;;;;;;17.38;60.60;100531.34;5032636;27;97381;-53
2023/09/23 04:10:17;;;;;;;2.83;2.63;;;;;;;17.37;60.56;100535.41;5034965;27;96997;-54
2023/09/23 04:12:43;;;;;;;2.93;2.70;;;;;;;17.40;60.54;100537.09;5035047;27;97723;-54
2023/09/23 04:15:09;;;;;;;3.70;2.30;;;;;;;17.42;60.53;100540.09;5033951;27;98171;-53
2023/09/23 04:17:35;;;;;;;2.90;2.70;;;;;;;17.42;60.71;100545.66;5033446;27;97140;-54
2023/09/23 04:20:03;;;;;;;3.53;2.97;;;;;;;17.43;60.60;100547.16;5035233;27;97480;-54
2023/09/23 04:22:29;;;;;;;3.47;3.17;;;;;;;17.44;60.53;100554.19;5033285;27;97606;-54
2023/09/23 04:24:54;;;;;;;3.10;2.90;;;;;;;17.43;60.48;100558.28;5034264;27;96880;-54
2023/09/23 04:27:19;;;;;;;3.33;3.03;;;;;;;17.44;60.64;100560.50;5041152;27;108363;-54
2023/09/23 04:29:47;;;;;;;3.37;3.13;;;;;;;17.41;60.57;100569.94;5037479;27;97416;-53
2023/09/23 04:32:12;;;;;;;3.70;3.37;;;;;;;17.41;60.47;100574.78;5036332;27;97239;-53
2023/09/23 04:34:38;;;;;;;3.37;3.07;;;;;;;17.41;60.47;100574.78;5033997;27;96864;-54
2023/09/23 04:37:04;;;;;;;3.43;3.13;;;;;;;17.41;60.56;100583.84;5032597;27;97182;-53
2023/09/23 04:39:30;;;;;;;3.80;3.50;;;;;;;17.39;60.58;100580.84;5032870;27;97189;-54
2023/09/23 04:41:56;;;;;;;3.73;3.43;;;;;;;17.39;60.45;100589.19;5034433;27;96725;-54
2023/09/23 04:44:21;;;;;;;4.37;4.07;;;;;;;17.38;60.57;100601.63;5035868;27;97451;-54
2023/09/23 04:46:47;;;;;;;4.50;4.10;;;;;;;17.39;60.64;100591.97;5035868;27;98161;-53
2023/09/23 04:49:12;;;;;;;3.93;3.63;;;;;;;17.41;60.56;100592.19;5034283;27;96764;-54
2023/09/23 04:51:38;;;;;;;3.70;3.40;;;;;;;17.41;60.46;100597.03;5034815;27;97016;-53
2023/09/23 04:54:03;;;;;;;4.40;4.00;;;;;;;17.39;60.58;100597.53;5034095;27;97539;-53
2023/09/23 04:56:30;;;;;;;4.20;3.90;;;;;;;17.39;60.42;100594.00;5033215;27;97061;-54
2023/09/23 04:58:58;;;;;;;3.47;3.27;;;;;;;17.39;60.59;100597.53;5036231;27;97076;-54
2023/09/23 05:01:24;;;;;;;4.50;4.10;;;;;;;17.39;60.50;100605.13;5033813;27;96776;-54
2023/09/23 05:03:52;;;;;;;4.00;3.70;;;;;;;17.39;60.57;100611.44;5033927;27;97458;-54
2023/09/23 05:06:17;;;;;;;4.63;4.00;;;;;;;17.39;60.67;100619.78;5032894;27;97254;-54
2023/09/23 05:08:43;;;;;;;4.40;4.10;;;;;;;17.38;60.56;100623.88;5034306;27;97263;-54
2023/09/23 05:11:11;;;;;;;4.27;3.93;;;;;;;17.37;60.52;100627.94;5035445;27;97621;-54
2023/09/23 05:13:37;;;;;;;5.00;4.60;;;;;;;17.34;60.66;100620.69;5034282;27;97908;-53
2023/09/23 05:16:03;;;;;;;6.07;5.43;;;;;;;17.31;60.69;100632.13;5031741;27;97561;-53
2023/09/23 05:18:29;;;;;;;5.00;4.70;;;;;;;17.28;60.77;100641.56;5032685;27;97056;-53
2023/09/23 05:20:54;;;;;;;5.40;5.00;;;;;;;17.24;60.90;100637.06;5033510;27;96845;-53
2023/09/23 05:23:23;;;;;;;5.17;4.77;;;;;;;17.23;61.04;100646.69;5033891;27;97823;-53
2023/09/23 05:25:49;;;;;;;6.30;5.80;;;;;;;17.22;61.09;100661.88;5033513;27;97156;-53
2023/09/23 05:28:14;;;;;;;5.80;5.27;;;;;;;17.19;61.20;100651.81;5032477;27;97331;-53
2023/09/23 05:30:40;;;;;;;7.13;6.43;;;;;;;17.17;61.33;100661.97;5036910;27;96852;-54
2023/09/23 05:33:05;;;;;;;6.20;5.40;;;;;;;17.18;61.27;100666.28;5033979;27;96988;-53
2023/09/23 05:35:30;;;;;;;5.67;5.17;;;;;;;17.16;61.61;100669.59;5035975;27;97120;-53
2023/09/23 05:37:55;;;;;;;5.37;4.97;;;;;;;17.16;61.44;100682.75;5034025;27;96684;-53
2023/09/23 05:40:24;;;;;;;5.70;5.20;;;;;;;17.17;61.45;100675.88;5034770;27;98556;-53
2023/09/23 05:42:50;;;;;;;5.63;5.17;;;;;;;17.16;61.41;100679.97;5035304;27;97402;-53
2023/09/23 05:45:16;;;;;;;5.83;5.33;;;;;;;17.14;61.42;100688.09;5035087;27;97264;-53
2023/09/23 05:47:42;;;;;;;5.50;5.10;;;;;;;17.11;61.52;100683.59;5035264;27;97034;-52
2023/09/23 05:50:09;;;;;;;4.90;4.60;;;;;;;17.09;61.43;100691.72;5034870;27;96833;-53
2023/09/23 05:52:35;;;;;;;4.00;3.80;;;;;;;17.03;61.51;100691.84;5032096;27;97329;-53
2023/09/23 05:55:00;;;;;;;4.77;4.37;;;;;;;17.00;61.55;100700.50;5034713;27;97147;-53
2023/09/23 05:57:26;;;;;;;4.00;3.70;;;;;;;16.98;61.45;100703.06;5031752;27;97014;-52
2023/09/23 05:59:51;;;;;;;3.60;3.40;;;;;;;16.93;61.38;100695.59;5033171;27;97005;-52
2023/09/23 06:02:17;;;;;;;3.43;2.70;;;;;;;16.91;61.21;100704.47;5032397;27;97015;-54
2023/09/23 06:04:42;;;;;;;3.67;2.97;;;;;;;16.93;61.32;100707.44;5031272;27;112371;-53
2023/09/23 06:07:07;;;;;;;3.13;2.93;;;;;;;16.95;61.33;100706.94;5034837;27;98540;-53
2023/09/23 06:09:33;;;;;;;3.50;3.30;;;;;;;16.96;61.26;100713.97;5032442;27;98532;-53
2023/09/23 06:11:58;;;;;;;2.70;2.60;;;;;;;16.98;61.36;100714.19;5031443;27;97383;-52
2023/09/23 06:14:25;;;;;;;3.27;3.07;;;;;;;16.97;61.13;100715.50;5032655;27;97497;-53
2023/09/23 06:16:50;;;;;;;2.30;2.20;;;;;;;16.98;61.13;100722.53;5029900;27;96930;-53
2023/09/23 06:19:16;;;;;;;2.70;2.50;;;;;;;16.92;61.14;100731.00;5031002;27;97380;-53
2023/09/23 06:21:41;;;;;;;2.73;2.57;;;;;;;16.89;61.13;100732.03;5032445;27;97505;-53
2023/09/23 06:24:07;;;;;;;1.77;1.67;;;;;;;16.92;61.09;100739.31;5035920;27;99733;-53
2023/09/23 06:26:33;;;;;;;2.40;2.27;;;;;;;16.97;61.02;100737.72;5033709;27;96740;-53
2023/09/23 06:28:58;;;;;;;1.90;1.80;;;;;;;16.98;60.99;100744.75;5031730;27;96731;-53
2023/09/23 06:31:24;;;;;;;1.80;1.70;;;;;;;16.99;60.94;100744.22;5035471;27;98023;-52
2023/09/23 06:33:49;;;;;;;2.53;2.03;;;;;;;17.01;60.84;100741.69;5035243;27;97176;-53
2023/09/23 06:36:14;;;;;;;1.67;1.57;;;;;;;17.02;60.87;100757.06;5033529;27;98123;-53
2023/09/23 06:38:39;;;;;;;1.70;1.53;;;;;;;17.12;60.50;100751.84;5037817;27;97288;-53
2023/09/23 06:41:05;;;;;;;1.90;1.80;;;;;;;17.20;60.69;100755.47;5034747;27;96978;-54
2023/09/23 06:43:30;;;;;;;1.77;1.67;;;;;;;17.28;60.60;100761.13;5033391;27;97243;-53
2023/09/23 06:45:56;;;;;;;1.80;1.70;;;;;;;17.31;60.66;100755.22;5038526;27;98956;-54
2023/09/23 06:48:23;;;;;;;1.47;1.43;;;;;;;17.30;60.47;100759.28;5033839;27;97272;-53
2023/09/23 06:51:02;;;;;;;2.13;1.60;;;;;;;17.30;60.21;100766.91;5034688;27;97896;-54
2023/09/23 06:53:28;;;;;;;10.80;2.10;;;;;;;17.32;60.57;100773.41;5038565;27;97138;-54
2023/09/23 06:55:54;;;;;;;1.90;1.80;;;;;;;17.37;60.55;100766.22;5038110;27;97110;-53
2023/09/23 06:58:19;;;;;;;1.80;1.70;;;;;;;17.42;60.42;100776.50;5036702;27;97185;-54
2023/09/23 07:00:45;;;;;;;2.90;2.10;;;;;;;17.46;60.45;100783.25;5037372;27;97364;-54
2023/09/23 07:03:10;;;;;;;2.03;1.93;;;;;;;17.48;60.31;100782.69;5037112;27;97151;-54
2023/09/23 07:05:36;;;;;;;1.93;1.83;;;;;;;17.45;60.28;100790.06;5036086;27;97267;-53
2023/09/23 07:08:01;;;;;;;2.37;2.17;;;;;;;17.42;60.20;100796.72;5034544;27;99371;-54
2023/09/23 07:10:27;;;;;;;2.20;2.10;;;;;;;17.41;60.34;100800.06;5035259;27;98498;-53
2023/09/23 07:12:53;;;;;;;2.40;2.20;;;;;;;17.39;60.37;100800.56;5038414;27;96883;-53
2023/09/23 07:15:18;;;;;;;2.40;2.20;;;;;;;17.41;60.35;100800.78;5033027;27;96891;-53
2023/09/23 07:17:43;;;;;;;2.47;2.37;;;;;;;17.42;60.28;100810.63;5030387;27;97781;-53
2023/09/23 07:20:09;;;;;;;2.33;2.17;;;;;;;17.46;60.30;100802.72;5025449;27;97303;-53
2023/09/23 07:22:35;;;;;;;2.50;2.30;;;;;;;17.51;60.18;100810.22;5029703;27;98973;-53
2023/09/23 07:25:00;;;;;;;2.40;2.30;;;;;;;17.56;60.18;100814.91;5029004;27;96972;-53
2023/09/23 07:27:26;;;;;;;2.27;2.17;;;;;;;17.58;60.02;100825.53;5028434;27;96806;-54
2023/09/23 07:29:51;;;;;;;2.83;2.63;;;;;;;17.59;59.98;100827.75;5030909;27;97039;-53
2023/09/23 07:32:17;;;;;;;2.67;2.57;;;;;;;17.60;59.86;100836.88;5029160;27;104350;-53
2023/09/23 07:34:42;;;;;;;3.40;3.20;;;;;;;17.55;59.74;100838.47;5030171;27;97674;-53
2023/09/23 07:37:08;;;;;;;2.97;2.77;;;;;;;17.53;59.84;100838.25;5034950;27;100451;-53
2023/09/23 07:39:34;;;;;;;3.00;2.80;;;;;;;17.56;59.85;100851.09;5037787;27;97361;-53
2023/09/23 07:41:59;;;;;;;3.07;2.87;;;;;;;17.58;59.64;100854.06;5030282;27;100095;-55
2023/09/23 07:44:24;;;;;;;2.20;2.10;;;;;;;17.57;59.59;100849.81;5033072;27;96938;-54
2023/09/23 07:46:50;;;;;;;3.30;3.00;;;;;;;17.60;59.45;100864.69;5037735;27;96783;-53
2023/09/23 07:49:15;;;;;;;3.50;3.20;;;;;;;17.57;59.49;100863.72;5032823;27;97207;-54
2023/09/23 07:51:40;;;;;;;3.20;3.00;;;;;;;17.57;59.38;100869.28;5034954;27;97539;-54
2023/09/23 07:54:06;;;;;;;8.73;3.80;;;;;;;17.56;59.46;100876.13;5036007;27;97185;-53
2023/09/23 07:56:31;;;;;;;4.37;4.00;;;;;;;17.53;59.49;100882.78;5036426;27;97236;-53
2023/09/23 07:58:57;;;;;;;5.77;5.23;;;;;;;17.50;59.41;100883.06;5033096;27;97375;-53
2023/09/23 08:01:22;;;;;;;5.40;4.90;;;;;;;17.48;59.65;100894.72;5034233;27;97574;-54
2023/09/23 08:03:47;;;;;;;6.03;5.43;;;;;;;17.47;59.47;100898.81;5036296;27;97747;-54
2023/09/23 08:06:13;;;;;;;5.80;5.20;;;;;;;17.42;59.50;100899.66;5040191;27;100825;-53
2023/09/23 08:08:38;;;;;;;6.20;5.70;;;;;;;17.41;59.47;100902.97;5031489;27;97670;-53
2023/09/23 08:11:05;;;;;;;5.63;5.13;;;;;;;17.39;59.47;100919.41;5034543;27;97447;-55
2023/09/23 08:13:30;;;;;;;5.50;5.00;;;;;;;17.40;59.52;100920.94;5034474;27;96804;-54
2023/09/23 08:15:59;;;;;;;5.67;5.07;;;;;;;17.38;59.36;100923.50;5034677;27;97042;-54
2023/09/23 08:18:24;;;;;;;6.10;5.50;;;;;;;17.42;59.53;100930.25;5033048;27;97088;-54
2023/09/23 08:20:56;;;;;;;5.83;5.33;;;;;;;17.51;59.32;100934.66;5033350;27;97089;-54
2023/09/23 08:23:22;;;;;;;5.83;5.33;;;;;;;17.57;59.51;100933.28;5034139;27;97016;-54
2023/09/23 08:25:48;;;;;;;6.30;5.20;;;;;;;17.65;59.22;100939.69;5034890;27;96995;-54
2023/09/23 08:28:13;;;;;;;7.13;6.23;;;;;;;17.75;59.27;100937.25;5033802;27;97188;-53
2023/09/23 08:30:42;;;;;;;6.97;6.27;;;;;;;17.88;58.98;100943.56;5032351;27;97302;-54
2023/09/23 08:33:07;;;;;;;8.03;5.90;;;;;;;17.95;58.97;100936.59;5033907;27;96792;-54
2023/09/23 08:35:33;;;;;;;7.97;6.40;;;;;;;18.03;58.79;100953.41;5034777;27;97150;-54
2023/09/23 08:37:58;;;;;;;7.67;6.43;;;;;;;18.07;58.77;100951.78;5032998;27;107325;-53
2023/09/23 08:40:24;;;;;;;8.20;6.37;;;;;;;18.11;58.89;100951.47;5033958;27;97772;-54
2023/09/23 08:42:54;;;;;;;8.70;6.63;;;;;;;18.22;58.86;100954.00;5033740;27;96537;-54
2023/09/23 08:45:23;;;;;;;8.83;6.50;;;;;;;18.30;58.53;100960.44;5033709;27;97147;-53
2023/09/23 08:47:48;;;;;;;8.30;5.83;;;;;;;18.29;58.42;100970.06;5032088;27;97645;-54
2023/09/23 08:50:17;;;;;;;9.80;7.60;;;;;;;18.31;58.36;100976.59;5034572;27;97594;-53
2023/09/23 08:52:43;;;;;;;8.80;7.13;;;;;;;18.35;58.25;100981.84;5035606;27;96974;-53
2023/09/23 08:55:10;;;;;;;7.77;7.00;;;;;;;18.38;58.20;100984.31;5032844;27;97670;-54
2023/09/23 08:57:36;;;;;;;8.30;7.50;;;;;;;18.44;58.25;100984.97;5033653;27;96868;-53
2023/09/23 09:00:06;;;;;;;7.47;6.73;;;;;;;18.54;57.92;100994.38;5034761;27;110115;-54
2023/09/23 09:02:32;;;;;;;6.87;6.27;;;;;;;18.68;57.91;101001.41;5033047;27;96885;-54
2023/09/23 09:04:58;;;;;;;7.97;7.17;;;;;;;18.85;57.77;100997.50;5032446;27;97046;-54
2023/09/23 09:07:44;;;;;;;8.40;6.70;;;;;;;18.87;57.39;100995.66;5032557;27;97389;-54
2023/09/23 09:10:09;;;;;;;6.70;6.00;;;;;;;18.90;57.35;101010.56;5031778;27;97355;-54
2023/09/23 09:12:35;;;;;;;6.80;5.40;;;;;;;18.88;57.14;101007.56;5034113;27;96665;-54
2023/09/23 09:15:00;;;;;;;6.87;6.17;;;;;;;18.89;57.11;101020.22;5041720;27;96929;-54
2023/09/23 09:17:26;;;;;;;6.00;5.50;;;;;;;18.91;57.21;101023.97;5036323;27;97383;-54
2023/09/23 09:19:51;;;;;;;5.90;5.30;;;;;;;18.91;57.10;101018.41;5031836;27;97066;-54
2023/09/23 09:22:19;;;;;;;7.43;5.50;;;;;;;18.95;56.92;101021.59;5031488;27;96932;-54
2023/09/23 09:24:46;;;;;;;9.47;5.73;;;;;;;19.02;56.65;101029.31;5034941;27;97051;-54
2023/09/23 09:27:14;;;;;;;6.03;5.50;;;;;;;19.05;56.55;101030.22;5033981;27;97159;-54
2023/09/23 09:29:43;;;;;;;6.43;5.90;;;;;;;19.03;56.64;101032.81;5031934;27;97419;-54
2023/09/23 09:32:13;;;;;;;6.27;5.77;;;;;;;19.07;56.43;101036.78;5034532;27;96798;-54
2023/09/23 09:34:46;;;;;;;6.97;6.13;;;;;;;19.05;55.75;101036.56;5038696;27;96908;-53
2023/09/23 09:37:15;;;;;;;6.27;5.77;;;;;;;19.04;56.42;101035.09;5031214;27;98052;-54
2023/09/23 09:39:53;;;;;;;5.43;5.00;;;;;;;19.06;56.17;101037.31;5032200;27;96915;-54
2023/09/23 09:42:30;;;;;;;5.77;5.37;;;;;;;19.05;55.80;101035.81;5034092;27;97387;-53
2023/09/23 09:44:56;;;;;;;6.23;5.73;;;;;;;19.06;56.25;101028.97;5031880;27;97128;-54
2023/09/23 09:47:22;;;;;;;6.10;5.60;;;;;;;19.23;56.45;101032.84;5033110;27;97475;-55
2023/09/23 09:49:52;;;;;;;5.93;5.47;;;;;;;19.44;55.92;101033.63;5030447;27;100156;-54
2023/09/23 09:52:26;;;;;;;5.70;5.30;;;;;;;19.60;55.60;101039.34;5034660;27;96731;-53
2023/09/23 09:54:53;;;;;;;6.27;5.67;;;;;;;19.64;55.59;101050.91;5033061;27;97650;-53
2023/09/23 09:57:22;;;;;;;6.40;5.90;;;;;;;19.63;55.58;101046.63;5033080;27;97494;-55
2023/09/23 09:59:48;;;;;;;6.07;5.57;;;;;;;19.64;55.58;101053.69;5032998;27;97071;-54
2023/09/23 10:02:14;;;;;;;6.30;5.73;;;;;;;19.69;55.49;101050.03;5035665;27;96856;-54
2023/09/23 10:04:45;;;;;;;6.10;5.60;;;;;;;19.73;55.37;101051.19;5033051;27;96969;-54
2023/09/23 10:07:10;;;;;;;6.23;5.63;;;;;;;19.81;55.61;101060.34;5035177;27;97171;-54
2023/09/23 10:09:38;;;;;;;6.70;6.20;;;;;;;19.88;55.43;101058.91;5037328;27;98166;-54
2023/09/23 10:12:06;;;;;;;6.67;6.07;;;;;;;19.90;55.47;101059.09;5033072;27;97133;-53
2023/09/23 10:14:31;;;;;;;6.63;6.07;;;;;;;19.93;55.49;101063.59;5037107;27;97153;-54
2023/09/23 10:17:05;;;;;;;6.40;5.80;;;;;;;19.96;55.19;101066.03;5038957;27;96858;-54
2023/09/23 10:19:39;;;;;;;5.93;5.47;;;;;;;19.93;54.76;101069.94;5038603;27;96620;-54
2023/09/23 10:22:17;;;;;;;7.37;6.00;;;;;;;19.92;54.81;101070.50;5036876;27;97077;-54
2023/09/23 10:24:43;;;;;;;6.37;5.77;;;;;;;19.97;55.17;101080.75;5035368;27;96757;-54
2023/09/23 10:27:10;;;;;;;5.70;5.30;;;;;;;19.99;55.04;101083.75;5037071;27;97339;-54
2023/09/23 10:29:47;;;;;;;6.37;5.87;;;;;;;20.04;54.59;101082.88;5040064;27;97494;-54
2023/09/23 10:32:16;;;;;;;6.30;5.80;;;;;;;20.02;54.63;101082.69;5038059;27;96974;-54
2023/09/23 10:34:58;;;;;;;6.17;5.67;;;;;;;19.95;54.63;101081.31;5037313;27;97367;-54
2023/09/23 10:37:24;;;;;;;6.07;5.57;;;;;;;19.95;55.09;101086.91;5038636;27;98169;-54
2023/09/23 10:39:49;;;;;;;5.90;5.43;;;;;;;19.97;54.80;101086.34;5039840;27;97736;-55
2023/09/23 10:42:14;;;;;;;5.70;5.20;;;;;;;19.98;54.79;101087.88;5037886;27;97079;-55
2023/09/23 10:44:40;;;;;;;6.17;5.60;;;;;;;19.96;54.89;101093.25;5039176;27;97084;-54
2023/09/23 10:47:05;;;;;;;6.00;5.60;;;;;;;19.98;54.75;101093.44;5036442;27;96931;-54
2023/09/23 10:49:31;;;;;;;6.00;5.40;;;;;;;19.91;54.58;101088.53;5037212;27;97514;-54
2023/09/23 10:51:57;;;;;;;5.77;5.20;;;;;;;19.91;54.90;101096.94;5033617;27;97999;-55
2023/09/23 10:54:24;;;;;;;5.60;5.20;;;;;;;19.90;54.57;101101.00;5037056;27;97105;-54
2023/09/23 10:56:49;;;;;;;7.13;5.17;;;;;;;19.91;54.76;101099.72;5034294;27;98552;-54
2023/09/23 10:59:15;;;;;;;5.03;4.63;;;;;;;19.94;54.70;101110.53;5037359;27;97289;-54
2023/09/23 11:01:41;;;;;;;5.03;4.70;;;;;;;20.02;54.71;101105.03;5035264;27;98890;-54
2023/09/23 11:04:07;;;;;;;5.30;4.90;;;;;;;20.11;54.52;101110.13;5039250;27;97116;-54
2023/09/23 11:06:33;;;;;;;4.77;4.40;;;;;;;20.15;54.35;101114.06;5040594;27;110828;-55
2023/09/23 11:08:59;;;;;;;5.27;4.77;;;;;;;20.18;54.17;101115.75;5037519;27;97756;-54
2023/09/23 11:11:25;;;;;;;4.73;4.33;;;;;;;20.22;54.20;101111.91;5036157;27;96979;-54
2023/09/23 11:13:50;;;;;;;5.23;4.83;;;;;;;20.28;54.22;101116.03;5036454;27;97001;-54
2023/09/23 11:16:15;;;;;;;5.57;5.07;;;;;;;20.33;54.03;101117.94;5036706;27;97757;-54
2023/09/23 11:18:42;;;;;;;4.33;4.03;;;;;;;20.28;53.74;101118.84;5036849;27;97252;-54
2023/09/23 11:21:07;;;;;;;4.83;4.53;;;;;;;20.21;53.73;101124.34;5033289;27;97000;-54
2023/09/23 11:23:33;;;;;;;6.90;6.30;;;;;;;20.36;52.21;101128.00;5034335;27;97083;-54